Hooker, Oklahoma
Current Conditions -  °F | °C
As of 12:55 AM on Saturday 25 Oct 2014 (Local Time) from KLBL Reporting Station
Clear Clear  
Wind Chill: 55°   Ceiling: Unl
Heat Index: 55°   Visibility: 10mi
Dew Point: 41°   Wind: 6mph
Humidity: 58%   Direction: 250°WSW
Pressure: 30.11"   Gusts: NA
Location:  36.86°N, 101.21°W
Report Text: KLBL 250555Z AUTO 25005KT 10SM CLR 13/05 A3011 RMK AO1 10250 20130 52007
Loading
Personal Weather Stations






























Interactive Weather Map
Tropical Storm Tracking
New forecast layout! Learn more

10-Day Weather Forecast

Advertisements
Track Severe Weather on mobile